• Join FlightAware (Why Join?)
  • Login
  • US Flag 
01:18AM EDT


 

Airport Tracker/Info


-or-


 

Live Flight TrackerFlight Track Log ✈ N173AA ✈ 19-Apr-2013 ✈ KBKL - KABE

Flight Track Log - Related Links

Times and Time Zones

All times are in EDT time to prevent confusion due to time zone crossing. See the N173AA flight status page for this flight to view local times or setup timezone preferences in your user account.

Time Position Orientation Groundspeed Altitude Reporting Facility
EDT Latitude Longitude Course Direction KTS MPH feet Rate Location/Type
01:53PM 41.5125 -81.6978 95° East 135 155 1,300  Level Cleveland Center
01:55PM 41.5794 -81.6933 North 260 299 2,500 900 Climbing Cleveland Center
01:55PM 41.6131 -81.6608 36° Northeast 236 272 3,300 1,740 Climbing Cleveland Center
01:56PM 41.6614 -81.6114 37° Northeast 281 323 5,400 1,860 Climbing Cleveland Center
01:57PM 41.6686 -81.5117 84° East 257 296 7,100 2,040 Climbing Cleveland Center
01:58PM 41.6653 -81.3975 92° East 263 303 9,500 2,220 Climbing Cleveland Center
01:59PM 41.4847 -80.9358 95° East  Level FlightAware Approximate
01:59PM 41.6597 -81.2975 94° East 271 312 11,600  Level Cleveland Center
02:00PM 41.6414 -81.2056 105° East 271 312 13,300 1,740 Climbing Cleveland Center
02:01PM 41.6211 -81.1108 106° East 255 293 15,100 1,560 Climbing Cleveland Center
02:02PM 41.5986 -81.0164 108° East 263 303 16,500 1,620 Climbing Cleveland Center
02:03PM 41.5781 -80.9108 105° East 285 328 18,400 1,740 Climbing Cleveland Center
02:04PM 41.5594 -80.8050 103° East 285 328 20,000 1,440 Climbing Cleveland Center
02:05PM 41.5450 -80.7081 101° East 285 328 21,300 1,260 Climbing Cleveland Center
02:06PM 41.5306 -80.5969 100° East 303 349 22,600 1,200 Climbing Cleveland Center
02:07PM 41.5181 -80.4778 98° East 309 356 23,800 1,200 Climbing Cleveland Center
02:08PM 41.5053 -80.3642 99° East 315 362 25,000 1,200 Climbing Cleveland Center
02:09PM 41.4906 -80.2478 100° East 315 362 26,300 960 Climbing Cleveland Center
02:10PM 41.4733 -80.1314 101° East 315 362 27,000 300 Climbing Cleveland Center
02:11PM 41.4500 -80.0014 103° East 320 368 27,000  Level Cleveland Center
02:12PM 41.4283 -79.8797 103° East 338 389 27,000  Level Cleveland Center
02:13PM 41.4108 -79.7469 100° East 354 407 27,000  Level Cleveland Center
02:14PM 41.3950 -79.6089 99° East 366 421 27,000  Level Cleveland Center
02:15PM 41.3814 -79.4733 98° East 372 428 27,000  Level Cleveland Center
02:16PM 41.3633 -79.3328 100° East 372 428 27,000 -60 Level Cleveland Center
02:17PM 41.3469 -79.1781 98° East 377 434 26,900 -60 Descending Cleveland Center
02:18PM 41.3306 -79.0403 99° East 377 434 26,900  Level Cleveland Center
02:19PM 41.3119 -78.9022 100° East 377 434 26,900  Level Cleveland Center
02:20PM 41.2953 -78.7647 99° East 372 428 26,900 -300 Level Cleveland Center
02:23PM 41.2522 -78.4492 100° East 363 418 26,000 -600 Descending New York Center
02:24PM 41.2297 -78.3139 102° East 370 426 25,000 -540 Descending New York Center
02:25PM 41.2131 -78.1797 99° East 370 426 25,000  Level New York Center
02:26PM 41.1897 -78.0503 103° East 370 426 25,000  Level New York Center
02:27PM 41.1667 -77.9183 103° East 365 420 25,000  Level New York Center
02:28PM 41.1431 -77.7889 104° East 360 414 25,000 -480 Level New York Center
02:29PM 41.1153 -77.6594 106° East 365 420 24,100 -1,140 Descending New York Center
02:30PM 41.0856 -77.5242 106° East 371 427 22,800 -1,320 Descending New York Center
02:31PM 41.0581 -77.3836 105° East 381 438 21,600 -1,320 Descending New York Center
02:32PM 41.0325 -77.2408 103° East 393 452 20,300 -1,020 Descending New York Center
02:33PM 41.0122 -77.1181 102° East 374 430 19,600 -1,020 Descending New York Center
02:34PM 40.9908 -77.0058 104° East 338 389 18,300 -1,500 Descending New York Center
02:35PM 40.9697 -76.8942 104° East 320 368 16,700 -1,560 Descending New York Center
02:36PM 40.9358 -76.7811 112° Southeast 299 344 15,300 -1,260 Descending New York Center
02:37PM 40.9097 -76.6800 109° East 299 344 14,200 -1,260 Descending New York Center
02:38PM 40.8825 -76.5569 106° East 314 361 12,800 -1,200 Descending New York Center
02:39PM 40.8567 -76.4447 107° East 314 361 11,800 -1,080 Descending New York Center
02:40PM 40.8347 -76.3333 105° East 309 356 10,700 -1,200 Descending New York Center
02:41PM 40.8167 -76.2331 103° East 309 356 9,500 -900 Descending New York Center
02:42PM 40.7903 -76.1242 108° East 309 356 9,000 -600 Descending New York Center
02:43PM 40.7728 -76.0050 101° East 304 350 8,300 -840 Descending New York Center
02:44PM 40.7644 -75.9056 96° East 299 344 7,400 -1,200 Descending New York Center
02:45PM 40.7861 -75.7894 76° East 293 337 5,900 -1,260 Descending New York Center
02:46PM 40.8092 -75.6869 73° East 293 337 4,900 -960 Descending New York Center
02:47PM 40.8319 -75.5953 72° East 278 320 4,100 -420 Descending New York Center
02:48PM 40.8497 -75.5142 74° East 250 288 4,100  Level New York Center
02:49PM 40.8572 -75.4325 83° East 231 266 4,100  Level New York Center
02:50PM 40.8708 -75.3511 78° East 226 260 4,100  Level New York Center
02:51PM 40.8733 -75.2853 87° East 208 239 4,100 -300 Level New York Center
02:52PM 40.8697 -75.2111 94° East 200 230 3,600 -600 Descending New York Center
02:53PM 40.8314 -75.1811 149° Southeast 146 168 3,000 -300 Descending New York Center
02:54PM 40.7994 -75.2008 205° Southwest 128 147 3,100  Climbing New York Center
02:55PM 40.7725 -75.2483 233° Southwest 153 176 3,100  Level New York Center